createdAt,value
2023-05-19T00:02:26.212Z,9.03
2023-05-19T00:04:53.443Z,12.70
2023-05-19T00:07:26.805Z,9.85
2023-05-19T00:09:53.716Z,10.38
2023-05-19T00:12:20.737Z,11.07
2023-05-19T00:14:47.662Z,9.67
2023-05-19T00:17:16.970Z,9.70
2023-05-19T00:19:45.307Z,8.30
2023-05-19T00:22:12.071Z,9.57
2023-05-19T00:24:38.842Z,15.30
2023-05-19T00:27:05.866Z,10.13
2023-05-19T00:29:32.581Z,9.07
2023-05-19T00:31:59.350Z,10.52
2023-05-19T00:34:26.324Z,9.10
2023-05-19T00:36:53.116Z,12.52
2023-05-19T00:39:19.819Z,8.45
2023-05-19T00:41:46.625Z,9.10
2023-05-19T00:44:13.303Z,13.43
2023-05-19T00:46:41.546Z,9.65
2023-05-19T00:49:08.516Z,9.88
2023-05-19T00:51:37.079Z,11.63
2023-05-19T00:54:03.994Z,10.90
2023-05-19T00:56:31.708Z,11.60
2023-05-19T00:59:00.987Z,13.38
2023-05-19T01:01:27.958Z,14.10
2023-05-19T01:03:58.898Z,14.83
2023-05-19T01:06:27.808Z,12.43
2023-05-19T01:08:54.585Z,10.23
2023-05-19T01:11:21.674Z,11.80
2023-05-19T01:13:49.055Z,12.17
2023-05-19T01:16:30.818Z,10.80
2023-05-19T01:19:31.091Z,11.70
2023-05-19T01:22:23.049Z,12.25
2023-05-19T01:25:31.570Z,9.98
2023-05-19T01:28:27.304Z,11.00
2023-05-19T01:30:56.253Z,12.23
2023-05-19T01:33:24.373Z,14.63
2023-05-19T01:35:52.896Z,15.32
2023-05-19T01:38:20.879Z,10.80
2023-05-19T01:40:49.617Z,12.95
2023-05-19T01:43:21.776Z,13.93
2023-05-19T01:45:49.164Z,12.40
2023-05-19T01:48:16.467Z,10.63
2023-05-19T01:50:45.387Z,12.73
2023-05-19T01:53:12.309Z,13.73
2023-05-19T01:55:48.405Z,11.98
2023-05-19T01:58:31.255Z,15.40
2023-05-19T02:01:16.707Z,16.25
2023-05-19T02:04:03.449Z,12.55
2023-05-19T02:06:51.863Z,14.82
2023-05-19T02:09:23.293Z,11.43
2023-05-19T02:11:56.044Z,15.60
2023-05-19T02:14:54.923Z,12.55
2023-05-19T02:17:23.407Z,10.52
2023-05-19T02:19:50.878Z,11.98
2023-05-19T02:22:17.692Z,12.63
2023-05-19T02:24:46.589Z,13.63
2023-05-19T02:27:13.368Z,9.63
2023-05-19T02:29:40.142Z,13.65
2023-05-19T02:32:07.727Z,17.30
2023-05-19T02:34:34.518Z,11.85
2023-05-19T02:37:01.343Z,10.93
2023-05-19T02:39:30.283Z,15.25
2023-05-19T02:41:56.939Z,15.77
2023-05-19T02:44:23.686Z,12.68
2023-05-19T02:46:50.965Z,15.73
2023-05-19T02:49:18.288Z,14.43
2023-05-19T02:51:45.054Z,10.25
2023-05-19T02:54:11.852Z,10.88
2023-05-19T02:56:38.617Z,15.52
2023-05-19T02:59:06.300Z,15.48
2023-05-19T03:01:33.777Z,12.25
2023-05-19T03:04:00.733Z,12.82
2023-05-19T03:06:28.282Z,13.88
2023-05-19T03:08:55.143Z,9.57
2023-05-19T03:11:23.274Z,15.25
2023-05-19T03:13:49.984Z,11.75
2023-05-19T03:16:16.719Z,12.38
2023-05-19T03:18:43.474Z,14.38
2023-05-19T03:21:10.844Z,9.20
2023-05-19T03:23:37.626Z,11.43
2023-05-19T03:26:04.676Z,14.02
2023-05-19T03:28:31.535Z,11.50
2023-05-19T03:30:58.432Z,11.27
2023-05-19T03:33:30.049Z,10.48
2023-05-19T03:38:24.426Z,12.50
2023-05-19T03:40:56.375Z,11.20
2023-05-19T03:43:23.383Z,17.90
2023-05-19T03:45:56.655Z,9.43
2023-05-19T03:48:42.205Z,10.43
2023-05-19T03:51:17.773Z,13.38
2023-05-19T03:53:48.749Z,10.35
2023-05-19T03:56:18.087Z,12.57
2023-05-19T03:58:45.102Z,8.75
2023-05-19T04:01:12.052Z,10.00
2023-05-19T04:03:38.894Z,13.73
2023-05-19T04:06:05.987Z,13.63
2023-05-19T04:08:32.725Z,14.10
2023-05-19T04:10:59.493Z,11.40
2023-05-19T04:13:26.317Z,12.50
2023-05-19T04:15:53.182Z,10.30
2023-05-19T04:18:19.941Z,15.43
2023-05-19T04:20:46.765Z,15.60
2023-05-19T04:23:13.415Z,14.18
2023-05-19T04:25:40.982Z,14.98
2023-05-19T04:28:07.964Z,12.50
2023-05-19T04:30:35.114Z,13.98
2023-05-19T04:33:04.994Z,14.23
2023-05-19T04:35:32.118Z,10.68
2023-05-19T04:38:01.685Z,12.10
2023-05-19T04:40:31.806Z,10.63
2023-05-19T04:42:59.141Z,15.88
2023-05-19T04:45:26.189Z,11.63
2023-05-19T04:47:58.159Z,10.30
2023-05-19T04:50:25.424Z,14.02
2023-05-19T04:52:52.837Z,10.70
2023-05-19T04:55:19.781Z,13.70
2023-05-19T04:57:48.266Z,13.00
2023-05-19T05:00:15.535Z,13.20
2023-05-19T05:02:52.667Z,10.93
2023-05-19T05:05:21.236Z,12.45
2023-05-19T05:07:47.978Z,11.90
2023-05-19T05:10:16.012Z,12.95
2023-05-19T05:12:42.952Z,11.77
2023-05-19T05:15:10.469Z,15.73
2023-05-19T05:17:38.254Z,12.30
2023-05-19T05:20:06.671Z,13.73
2023-05-19T05:22:34.018Z,13.80
2023-05-19T05:25:01.912Z,12.43
2023-05-19T05:29:56.471Z,18.63
2023-05-19T05:32:26.394Z,12.13
2023-05-19T05:34:53.392Z,14.13
2023-05-19T05:37:20.142Z,20.08
2023-05-19T05:39:46.957Z,15.75
2023-05-19T05:42:13.778Z,15.75
2023-05-19T05:44:40.830Z,16.00
2023-05-19T05:47:08.354Z,11.95
2023-05-19T05:52:08.205Z,17.88
2023-05-19T05:54:41.880Z,14.60
2023-05-19T05:57:09.573Z,14.18
2023-05-19T05:59:36.273Z,14.73
2023-05-19T06:02:03.141Z,11.60
2023-05-19T06:04:31.167Z,20.58
2023-05-19T06:07:01.186Z,16.60
2023-05-19T06:09:32.989Z,21.55
2023-05-19T06:12:00.996Z,18.27
2023-05-19T06:14:32.560Z,17.92
2023-05-19T06:17:30.271Z,18.45
2023-05-19T06:19:57.617Z,11.13
2023-05-19T06:22:25.522Z,13.07
2023-05-19T06:24:53.353Z,16.88
2023-05-19T06:27:20.852Z,16.80
2023-05-19T06:29:47.716Z,16.38
2023-05-19T06:32:15.341Z,15.85
2023-05-19T06:34:42.346Z,12.60
2023-05-19T06:37:09.447Z,14.10
2023-05-19T06:39:38.305Z,13.68
2023-05-19T06:42:05.329Z,13.68
2023-05-19T06:44:52.579Z,15.48
2023-05-19T06:47:19.611Z,16.20
2023-05-19T06:49:46.381Z,15.57
2023-05-19T06:52:13.788Z,18.63
2023-05-19T06:54:40.740Z,14.65
2023-05-19T06:57:07.429Z,19.27
2023-05-19T06:59:34.307Z,16.90
2023-05-19T07:02:02.509Z,15.07
2023-05-19T07:04:29.285Z,12.02
2023-05-19T07:06:56.435Z,13.85
2023-05-19T07:09:23.625Z,19.88
2023-05-19T07:11:51.066Z,15.82
2023-05-19T07:14:17.881Z,11.77
2023-05-19T07:16:44.621Z,20.77
2023-05-19T07:19:11.416Z,17.80
2023-05-19T07:21:38.322Z,8.93
2023-05-19T07:24:05.321Z,12.50
2023-05-19T07:26:32.079Z,14.67
2023-05-19T07:28:58.754Z,11.43
2023-05-19T07:31:26.152Z,19.58
2023-05-19T07:33:54.594Z,15.50
2023-05-19T07:36:21.730Z,12.90
2023-05-19T07:38:48.486Z,14.80
2023-05-19T07:41:15.378Z,10.73
2023-05-19T07:43:42.931Z,11.13
2023-05-19T07:46:09.844Z,14.60
2023-05-19T07:48:36.994Z,25.15
2023-05-19T07:51:04.037Z,9.73
2023-05-19T07:53:31.052Z,13.27
2023-05-19T07:55:58.818Z,14.57
2023-05-19T08:00:53.466Z,15.05
2023-05-19T08:03:20.720Z,12.27
2023-05-19T08:05:47.888Z,18.70
2023-05-19T08:08:16.725Z,21.48
2023-05-19T08:10:43.775Z,14.23
2023-05-19T08:13:10.513Z,15.63
2023-05-19T08:15:37.667Z,13.05
2023-05-19T08:18:05.223Z,12.38
2023-05-19T08:20:32.876Z,12.13
2023-05-19T08:23:00.100Z,12.20
2023-05-19T08:25:26.944Z,14.03
2023-05-19T08:27:53.750Z,9.40
2023-05-19T08:30:20.532Z,9.55
2023-05-19T08:32:48.573Z,11.02
2023-05-19T08:35:15.677Z,9.63
2023-05-19T08:37:42.362Z,7.13
2023-05-19T08:40:15.980Z,14.40
2023-05-19T08:42:42.789Z,10.75
2023-05-19T08:45:10.042Z,8.90
2023-05-19T08:47:36.793Z,8.65
2023-05-19T08:50:10.724Z,9.68
2023-05-19T08:52:52.560Z,10.18
2023-05-19T08:55:36.707Z,7.38
2023-05-19T08:58:04.808Z,7.13
2023-05-19T09:00:33.843Z,6.22
2023-05-19T09:03:17.623Z,5.90
2023-05-19T09:05:46.566Z,7.68
2023-05-19T09:08:13.751Z,8.38
2023-05-19T09:10:40.940Z,9.20
2023-05-19T09:13:07.740Z,5.40
2023-05-19T09:15:36.883Z,5.97
2023-05-19T09:18:11.657Z,6.72
2023-05-19T09:20:41.555Z,7.07
2023-05-19T09:23:13.799Z,7.60
2023-05-19T09:26:02.545Z,5.75
2023-05-19T09:28:32.184Z,8.02
2023-05-19T09:31:09.228Z,5.32
2023-05-19T09:33:41.065Z,6.00
2023-05-19T09:36:11.023Z,4.97
2023-05-19T09:38:39.235Z,5.82
2023-05-19T09:41:07.663Z,8.18
2023-05-19T09:43:35.095Z,5.90
2023-05-19T09:46:11.824Z,8.15
2023-05-19T09:48:39.703Z,3.95
2023-05-19T09:51:10.420Z,6.80
2023-05-19T09:53:37.335Z,6.88
2023-05-19T09:56:04.308Z,5.03
2023-05-19T09:58:35.599Z,9.47
2023-05-19T10:01:03.853Z,7.25
2023-05-19T10:03:33.024Z,7.45
2023-05-19T10:06:01.383Z,6.75
2023-05-19T10:08:30.427Z,5.03
2023-05-19T10:10:58.009Z,5.68
2023-05-19T10:13:26.505Z,6.38
2023-05-19T10:15:58.981Z,6.05
2023-05-19T10:18:27.841Z,6.13
2023-05-19T10:20:55.035Z,6.75
2023-05-19T10:23:22.499Z,6.65
2023-05-19T10:25:52.856Z,5.55
2023-05-19T10:28:24.967Z,3.55
2023-05-19T10:30:56.655Z,4.55
2023-05-19T10:33:38.719Z,3.65
2023-05-19T10:36:27.101Z,6.45
2023-05-19T10:39:03.982Z,7.63
2023-05-19T10:41:39.149Z,4.55
2023-05-19T10:44:39.774Z,5.00
2023-05-19T10:47:07.938Z,5.82
2023-05-19T10:49:36.650Z,5.63
2023-05-19T10:52:03.973Z,8.13
2023-05-19T10:54:41.256Z,5.72
2023-05-19T10:57:08.604Z,7.40
2023-05-19T10:59:37.822Z,4.25
2023-05-19T11:02:06.459Z,8.40
2023-05-19T11:05:07.788Z,7.15
2023-05-19T11:07:34.943Z,6.35
2023-05-19T11:10:06.187Z,4.43
2023-05-19T11:12:42.571Z,7.57
2023-05-19T11:15:14.183Z,12.32
2023-05-19T11:17:45.029Z,6.28
2023-05-19T11:20:25.329Z,3.83
2023-05-19T11:23:18.533Z,8.25
2023-05-19T11:25:47.531Z,4.97
2023-05-19T11:28:25.835Z,5.10
2023-05-19T11:30:55.195Z,4.97
2023-05-19T11:33:27.130Z,5.57
2023-05-19T11:35:58.505Z,4.03
2023-05-19T11:38:28.410Z,8.23
2023-05-19T11:40:56.374Z,4.75
2023-05-19T11:45:56.238Z,8.32
2023-05-19T11:48:23.165Z,4.55
2023-05-19T11:50:51.025Z,4.97
2023-05-19T11:53:19.725Z,8.13
2023-05-19T11:55:47.970Z,5.95
2023-05-19T11:58:15.502Z,7.13
2023-05-19T12:00:45.938Z,7.38
2023-05-19T12:03:13.308Z,5.70
2023-05-19T12:05:46.768Z,5.25
2023-05-19T12:08:14.469Z,2.13
2023-05-19T12:10:41.531Z,6.13
2023-05-19T12:13:09.943Z,3.60
2023-05-19T12:15:37.749Z,6.22
2023-05-19T12:18:04.612Z,5.30
2023-05-19T12:20:32.722Z,4.20
2023-05-19T12:23:00.532Z,5.38
2023-05-19T12:28:03.173Z,10.35
2023-05-19T12:30:31.422Z,3.03
2023-05-19T12:32:58.789Z,4.88
2023-05-19T12:35:27.820Z,7.13
2023-05-19T12:37:54.905Z,5.93
2023-05-19T12:40:22.181Z,4.95
2023-05-19T12:42:52.251Z,7.25
2023-05-19T12:45:22.944Z,5.10
2023-05-19T12:47:50.472Z,5.88
2023-05-19T12:50:17.341Z,5.40
2023-05-19T12:52:48.647Z,6.45
2023-05-19T12:55:16.728Z,6.95
2023-05-19T13:00:22.930Z,6.13
2023-05-19T13:03:06.568Z,5.72
2023-05-19T13:05:37.907Z,5.30
2023-05-19T13:08:06.835Z,5.18
2023-05-19T13:10:34.995Z,5.03
2023-05-19T13:13:02.796Z,6.80
2023-05-19T13:15:35.436Z,8.70
2023-05-19T13:18:07.312Z,3.95
2023-05-19T13:20:35.244Z,4.35
2023-05-19T13:23:02.275Z,5.70
2023-05-19T13:25:29.121Z,5.18
2023-05-19T13:27:56.776Z,3.67
2023-05-19T13:32:52.600Z,3.28
2023-05-19T13:35:20.089Z,3.83
2023-05-19T13:37:46.953Z,4.43
2023-05-19T13:40:13.876Z,3.67
2023-05-19T13:42:40.802Z,6.35
2023-05-19T13:45:08.255Z,4.53
2023-05-19T13:47:35.263Z,4.60
2023-05-19T13:50:04.628Z,5.25
2023-05-19T13:52:31.530Z,5.72
2023-05-19T13:54:58.283Z,2.50
2023-05-19T13:57:26.349Z,3.78
2023-05-19T14:00:02.649Z,6.03
2023-05-19T14:02:40.048Z,3.33
2023-05-19T14:05:07.531Z,4.28
2023-05-19T14:07:35.133Z,6.60
2023-05-19T14:10:06.738Z,6.57
2023-05-19T14:12:49.430Z,3.58
2023-05-19T14:15:22.731Z,6.75
2023-05-19T14:17:49.562Z,4.68
2023-05-19T14:20:16.334Z,5.97
2023-05-19T14:22:43.121Z,6.30
2023-05-19T14:25:10.024Z,3.83
2023-05-19T14:27:37.075Z,4.85
2023-05-19T14:30:04.182Z,7.03
2023-05-19T14:32:30.990Z,4.85
2023-05-19T14:34:57.923Z,4.20
2023-05-19T14:37:27.524Z,5.15
2023-05-19T14:39:54.646Z,5.82
2023-05-19T14:42:21.383Z,3.20
2023-05-19T14:44:48.110Z,7.28
2023-05-19T14:47:15.014Z,5.35
2023-05-19T14:49:41.849Z,7.55
2023-05-19T14:52:09.439Z,4.65
2023-05-19T14:54:36.224Z,7.25
2023-05-19T14:57:03.102Z,5.28
2023-05-19T14:59:29.853Z,7.30
2023-05-19T15:01:56.638Z,6.03
2023-05-19T15:04:23.404Z,6.38
2023-05-19T15:07:02.030Z,6.20
2023-05-19T15:09:36.298Z,2.93
2023-05-19T15:12:03.075Z,4.90
2023-05-19T15:14:31.048Z,11.35
2023-05-19T15:16:59.187Z,6.95
2023-05-19T15:19:26.393Z,6.07
2023-05-19T15:21:53.249Z,7.63
2023-05-19T15:24:19.989Z,5.90
2023-05-19T15:26:47.290Z,4.10
2023-05-19T15:29:14.174Z,5.85
2023-05-19T15:31:41.126Z,6.43
2023-05-19T15:34:07.958Z,4.03
2023-05-19T15:36:34.708Z,4.13
2023-05-19T15:39:01.557Z,2.90
2023-05-19T15:41:28.316Z,7.93
2023-05-19T15:43:55.048Z,4.30
2023-05-19T15:46:21.869Z,6.70
2023-05-19T15:48:48.555Z,6.88
2023-05-19T15:51:15.329Z,6.53
2023-05-19T15:53:42.072Z,5.20
2023-05-19T15:56:08.832Z,5.38
2023-05-19T15:58:35.670Z,5.32
2023-05-19T16:01:03.088Z,6.32
2023-05-19T16:03:30.213Z,13.32
2023-05-19T16:08:23.962Z,2.65
2023-05-19T16:10:50.867Z,5.78
2023-05-19T16:13:17.617Z,6.85
2023-05-19T16:15:44.407Z,5.45
2023-05-19T16:18:11.765Z,5.65
2023-05-19T16:20:38.798Z,4.80
2023-05-19T16:23:05.635Z,4.32
2023-05-19T16:25:32.750Z,5.28
2023-05-19T16:30:27.992Z,4.90
2023-05-19T16:32:54.846Z,7.55
2023-05-19T16:35:21.991Z,4.65
2023-05-19T16:40:15.957Z,7.93
2023-05-19T16:42:42.616Z,9.07
2023-05-19T16:45:10.088Z,6.75
2023-05-19T16:50:04.177Z,6.70
2023-05-19T16:52:30.958Z,4.38
2023-05-19T16:54:57.699Z,4.82
2023-05-19T16:57:24.540Z,7.13
2023-05-19T16:59:51.470Z,7.25
2023-05-19T17:02:18.501Z,7.88
2023-05-19T17:04:45.370Z,7.90
2023-05-19T17:07:16.228Z,3.50
2023-05-19T17:09:43.517Z,3.15
2023-05-19T17:12:10.885Z,4.28
2023-05-19T17:17:04.456Z,6.03
2023-05-19T17:19:31.577Z,7.03
2023-05-19T17:21:58.397Z,4.47
2023-05-19T17:24:25.300Z,6.03
2023-05-19T17:26:52.446Z,4.40
2023-05-19T17:29:19.162Z,4.03
2023-05-19T17:31:46.012Z,6.30
2023-05-19T17:34:12.729Z,4.65
2023-05-19T17:36:39.395Z,5.00
2023-05-19T17:39:06.291Z,3.45
2023-05-19T17:41:33.054Z,3.92
2023-05-19T17:43:59.831Z,3.93
2023-05-19T17:46:26.669Z,5.43
2023-05-19T17:48:53.805Z,6.22
2023-05-19T17:51:21.183Z,9.23
2023-05-19T17:53:48.272Z,6.38
2023-05-19T17:56:15.261Z,9.55
2023-05-19T17:58:42.633Z,8.65
2023-05-19T18:01:09.675Z,8.13
2023-05-19T18:03:36.847Z,7.68
2023-05-19T18:06:03.975Z,12.32
2023-05-19T18:08:31.195Z,4.45
2023-05-19T18:10:58.311Z,5.20
2023-05-19T18:13:26.124Z,3.25
2023-05-19T18:15:52.990Z,8.07
2023-05-19T18:18:19.815Z,8.88
2023-05-19T18:20:46.708Z,6.20
2023-05-19T18:23:13.461Z,8.77
2023-05-19T18:25:40.207Z,6.53
2023-05-19T18:28:07.678Z,7.97
2023-05-19T18:30:34.973Z,3.90
2023-05-19T18:33:03.734Z,7.57
2023-05-19T18:35:30.807Z,5.90
2023-05-19T18:37:57.508Z,6.40
2023-05-19T18:40:24.598Z,5.07
2023-05-19T18:42:51.487Z,6.15
2023-05-19T18:45:18.390Z,6.27
2023-05-19T18:47:45.217Z,4.68
2023-05-19T18:50:12.572Z,7.83
2023-05-19T18:52:39.319Z,6.28
2023-05-19T18:55:07.206Z,7.07
2023-05-19T18:57:33.983Z,14.95
2023-05-19T19:00:00.812Z,5.60
2023-05-19T19:02:27.490Z,8.13
2023-05-19T19:04:54.314Z,6.32
2023-05-19T19:07:21.097Z,8.30
2023-05-19T19:09:47.783Z,7.75
2023-05-19T19:12:14.540Z,10.02
2023-05-19T19:14:41.787Z,6.57
2023-05-19T19:17:08.551Z,7.55
2023-05-19T19:19:35.411Z,10.33
2023-05-19T19:22:02.217Z,5.88
2023-05-19T19:24:31.082Z,4.93
2023-05-19T19:26:57.736Z,3.63
2023-05-19T19:29:24.441Z,5.38
2023-05-19T19:31:51.389Z,11.07
2023-05-19T19:34:19.825Z,3.80
2023-05-19T19:36:47.876Z,15.02
2023-05-19T19:39:14.715Z,7.50
2023-05-19T19:41:41.528Z,12.40
2023-05-19T19:44:08.305Z,4.78
2023-05-19T19:46:35.522Z,10.88
2023-05-19T19:49:02.405Z,6.72
2023-05-19T19:51:29.278Z,7.85
2023-05-19T19:53:55.995Z,7.57
2023-05-19T19:56:24.675Z,8.18
2023-05-19T19:58:51.551Z,7.13
2023-05-19T20:01:20.647Z,11.27
2023-05-19T20:03:48.116Z,6.25
2023-05-19T20:06:15.296Z,5.75
2023-05-19T20:08:42.024Z,15.40
2023-05-19T20:11:09.012Z,6.50
2023-05-19T20:13:35.740Z,10.40
2023-05-19T20:16:02.567Z,10.15
2023-05-19T20:18:30.057Z,6.97
2023-05-19T20:20:57.127Z,8.05
2023-05-19T20:23:23.927Z,7.15
2023-05-19T20:26:10.192Z,7.90
2023-05-19T20:28:37.614Z,12.40
2023-05-19T20:31:05.187Z,10.77
2023-05-19T20:33:32.060Z,6.70
2023-05-19T20:35:58.813Z,7.57
2023-05-19T20:38:25.687Z,9.05
2023-05-19T20:40:52.688Z,14.48
2023-05-19T20:43:19.456Z,8.68
2023-05-19T20:45:46.547Z,9.55
2023-05-19T20:48:13.447Z,8.38
2023-05-19T20:50:40.544Z,8.03
2023-05-19T20:53:07.575Z,9.13
2023-05-19T20:55:36.220Z,8.70
2023-05-19T20:58:03.159Z,11.48
2023-05-19T21:00:30.704Z,9.43
2023-05-19T21:02:57.920Z,5.55
2023-05-19T21:05:24.918Z,9.80
2023-05-19T21:07:51.754Z,5.00
2023-05-19T21:10:18.626Z,11.05
2023-05-19T21:12:46.364Z,8.02
2023-05-19T21:15:13.307Z,7.20
2023-05-19T21:17:40.104Z,7.83
2023-05-19T21:20:07.501Z,7.78
2023-05-19T21:22:35.703Z,4.93
2023-05-19T21:25:02.699Z,11.57
2023-05-19T21:27:29.940Z,10.90
2023-05-19T21:29:56.629Z,9.95
2023-05-19T21:32:23.431Z,8.77
2023-05-19T21:34:50.268Z,9.63
2023-05-19T21:37:17.712Z,9.23
2023-05-19T21:39:45.004Z,5.15
2023-05-19T21:42:11.823Z,5.95
2023-05-19T21:44:38.659Z,7.95
2023-05-19T21:47:05.561Z,9.13
2023-05-19T21:49:32.329Z,7.63
2023-05-19T21:51:59.012Z,7.07
2023-05-19T21:54:25.756Z,7.20
2023-05-19T21:56:52.444Z,6.35
2023-05-19T21:59:23.099Z,6.65
2023-05-19T22:01:49.999Z,8.77
2023-05-19T22:04:18.533Z,8.85
2023-05-19T22:06:45.621Z,9.80
2023-05-19T22:09:12.907Z,7.15
2023-05-19T22:11:40.080Z,10.30
2023-05-19T22:14:07.118Z,6.68
2023-05-19T22:16:34.184Z,7.53
2023-05-19T22:19:01.133Z,7.43
2023-05-19T22:21:27.999Z,7.72
2023-05-19T22:23:54.819Z,7.00
2023-05-19T22:26:22.123Z,7.47
2023-05-19T22:28:49.944Z,6.15
2023-05-19T22:33:43.571Z,4.72
2023-05-19T22:36:11.129Z,9.55
2023-05-19T22:38:37.903Z,9.00
2023-05-19T22:41:04.723Z,6.00
2023-05-19T22:43:31.482Z,8.45
2023-05-19T22:45:58.275Z,5.13
2023-05-19T22:48:25.049Z,8.85
2023-05-19T22:50:51.759Z,7.95
2023-05-19T22:53:18.635Z,12.43
2023-05-19T22:55:45.630Z,21.73
2023-05-19T22:58:12.439Z,13.77
2023-05-19T23:00:39.298Z,8.45
2023-05-19T23:03:06.129Z,7.75
2023-05-19T23:05:33.100Z,8.20
2023-05-19T23:07:59.882Z,8.30
2023-05-19T23:10:26.637Z,6.72
2023-05-19T23:12:53.491Z,5.45
2023-05-19T23:15:20.354Z,5.72
2023-05-19T23:17:47.168Z,7.40
2023-05-19T23:20:14.079Z,7.32
2023-05-19T23:22:41.071Z,7.82
2023-05-19T23:25:08.049Z,5.00
2023-05-19T23:27:37.884Z,6.90
2023-05-19T23:30:05.138Z,5.40
2023-05-19T23:32:32.200Z,4.55
2023-05-19T23:35:09.553Z,5.53
2023-05-19T23:37:36.628Z,6.95
2023-05-19T23:40:03.600Z,6.53
2023-05-19T23:42:30.357Z,6.70
2023-05-19T23:44:57.033Z,5.35
2023-05-19T23:47:23.874Z,6.20
2023-05-19T23:49:50.576Z,5.50
2023-05-19T23:52:17.386Z,7.18
2023-05-19T23:54:44.092Z,6.35
2023-05-19T23:57:10.823Z,7.07
2023-05-19T23:59:37.730Z,5.32
